createdAt,value
2023-03-23T15:59:53.837Z,99598.88
2023-03-23T16:05:15.895Z,99606.59
2023-03-23T16:10:38.103Z,99622.44
2023-03-23T16:16:00.010Z,99624.88
2023-03-23T16:21:21.956Z,99627.47
2023-03-23T16:26:43.779Z,99620.06
2023-03-23T16:32:05.750Z,99637.97
2023-03-23T16:37:27.591Z,99642.50
2023-03-23T16:42:49.675Z,99651.63
2023-03-23T16:48:13.270Z,99650.34
2023-03-23T16:53:35.424Z,99660.63
2023-03-23T16:58:57.237Z,99662.25
2023-03-23T17:04:19.154Z,99660.22
2023-03-23T17:09:42.560Z,99679.50
2023-03-23T17:15:05.841Z,99668.78
2023-03-23T17:20:27.697Z,99672.25
2023-03-23T17:25:49.778Z,99671.91
2023-03-23T17:31:11.614Z,99683.16
2023-03-23T17:36:33.497Z,99684.72
2023-03-23T17:41:55.711Z,99674.00
2023-03-23T17:47:17.568Z,99682.56
2023-03-23T17:52:40.627Z,99708.28
2023-03-23T17:58:02.512Z,99720.06
2023-03-23T18:03:25.178Z,99731.22
2023-03-23T18:08:47.089Z,99724.16
2023-03-23T18:14:08.966Z,99729.63
2023-03-23T18:19:30.770Z,99740.59
2023-03-23T18:24:52.637Z,99727.69
2023-03-23T18:30:14.841Z,99715.50
2023-03-23T18:35:36.695Z,99730.94
2023-03-23T18:40:59.535Z,99732.59
2023-03-23T18:46:21.401Z,99739.41
2023-03-23T18:51:43.269Z,99736.22
2023-03-23T18:57:05.096Z,99738.38
2023-03-23T19:02:27.088Z,99740.31
2023-03-23T19:07:49.037Z,99719.94
2023-03-23T19:13:10.970Z,99712.06
2023-03-23T19:18:33.514Z,99727.16
2023-03-23T19:23:55.842Z,99721.59
2023-03-23T19:29:26.500Z,99725.03
2023-03-23T19:34:51.169Z,99720.00
2023-03-23T19:40:31.075Z,99707.28
2023-03-23T19:45:55.182Z,99729.28
2023-03-23T19:51:21.474Z,99708.94
2023-03-23T19:56:43.466Z,99709.78
2023-03-23T20:02:05.524Z,99709.22
2023-03-23T20:07:27.365Z,99712.09
2023-03-23T20:12:49.264Z,99707.16
2023-03-23T20:18:11.024Z,99705.34
2023-03-23T20:23:33.697Z,99715.72
2023-03-23T20:28:55.868Z,99717.81
2023-03-23T20:34:18.030Z,99715.56
2023-03-23T20:39:39.883Z,99699.66
2023-03-23T20:45:02.537Z,99702.84
2023-03-23T20:50:24.400Z,99697.91
2023-03-23T20:55:46.411Z,99696.50
2023-03-23T21:01:08.610Z,99699.41
2023-03-23T21:06:31.231Z,99696.81
2023-03-23T21:11:53.973Z,99695.00
2023-03-23T21:17:15.825Z,99708.16
2023-03-23T21:22:37.999Z,99686.28
2023-03-23T21:28:00.159Z,99703.97
2023-03-23T21:33:22.023Z,99708.34
2023-03-23T21:38:44.017Z,99708.69
2023-03-23T21:44:06.003Z,99711.69
2023-03-23T21:49:28.742Z,99714.94
2023-03-23T21:54:50.602Z,99721.94
2023-03-23T22:00:12.939Z,99730.81
2023-03-23T22:05:38.985Z,99725.97
2023-03-23T22:11:03.266Z,99727.75
2023-03-23T22:16:26.135Z,99735.13
2023-03-23T22:21:48.084Z,99735.59
2023-03-23T22:27:09.957Z,99737.09
2023-03-23T22:32:31.836Z,99748.63
2023-03-23T22:37:54.277Z,99752.78
2023-03-23T22:43:16.151Z,99754.47
2023-03-23T22:48:38.260Z,99753.53
2023-03-23T22:54:00.164Z,99749.63
2023-03-23T22:59:22.200Z,99756.44
2023-03-23T23:04:44.100Z,99755.28
2023-03-23T23:10:06.866Z,99748.28
2023-03-23T23:15:28.761Z,99756.06
2023-03-23T23:20:53.171Z,99755.66
2023-03-23T23:26:16.337Z,99751.22
2023-03-23T23:31:38.271Z,99755.41
2023-03-23T23:37:00.563Z,99749.69
2023-03-23T23:42:23.269Z,99766.94
2023-03-23T23:47:46.029Z,99757.22
2023-03-23T23:53:08.212Z,99762.53
2023-03-23T23:58:30.368Z,99756.81
